Time;durP1;ratioP1;P1;durP2;ratioP2;P2;SDS_P1;SDS_P2;PMS_P1;PMS_P2;Temp;Humidity;BMP_temperature;BMP_pressure;BME280_temperature;BME280_humidity;BME280_pressure;Samples;Min_cycle;Max_cycle;Signal;HPM_P1;HPM_P2
2022/08/04 00:01:22;;;;;;;9.43;3.47;;;22.30;99.90;;;;;;5059882;28;20141;-87
2022/08/04 00:04:52;;;;;;;13.32;3.95;;;22.30;99.90;;;;;;5076323;28;20047;-88
2022/08/04 00:07:40;;;;;;;7.25;3.15;;;22.30;99.90;;;;;;4978208;28;20450;-89
2022/08/04 00:10:07;;;;;;;8.82;3.75;;;22.20;99.90;;;;;;4999018;28;20053;-89
2022/08/04 00:12:40;;;;;;;9.05;3.72;;;22.20;99.90;;;;;;5045827;28;20067;-89
2022/08/04 00:15:10;;;;;;;6.55;3.28;;;22.10;99.90;;;;;;5059286;28;20051;-89
2022/08/04 00:17:41;;;;;;;5.97;2.92;;;22.10;99.90;;;;;;5059682;28;20092;-89
2022/08/04 00:20:09;;;;;;;6.32;3.20;;;22.50;99.90;;;;;;5059622;28;20087;-88
2022/08/04 00:22:38;;;;;;;6.40;3.30;;;22.00;99.90;;;;;;5075820;28;20105;-88
2022/08/04 00:25:04;;;;;;;10.30;3.88;;;22.00;99.90;;;;;;5059174;28;20056;-87
2022/08/04 00:27:31;;;;;;;8.35;3.28;;;22.00;99.90;;;;;;5059342;28;20472;-87
2022/08/04 00:29:58;;;;;;;7.72;3.55;;;22.00;99.90;;;;;;5075922;28;20044;-87
2022/08/04 00:32:25;;;;;;;8.93;3.80;;;21.90;99.90;;;;;;5058976;28;20045;-89
2022/08/04 00:34:54;;;;;;;5.72;3.22;;;21.90;99.90;;;;;;5076091;28;20048;-87
2022/08/04 00:37:24;;;;;;;8.63;3.40;;;21.90;99.90;;;;;;5059106;28;20053;-88
2022/08/04 00:39:53;;;;;;;7.50;3.08;;;21.90;99.90;;;;;;5076856;28;20178;-89
2022/08/04 00:42:40;;;;;;;8.65;3.10;;;21.90;99.90;;;;;;5075829;28;20036;-89
2022/08/04 00:45:20;;;;;;;5.78;2.95;;;21.80;99.90;;;;;;5075996;28;20484;-88
2022/08/04 00:48:25;;;;;;;7.20;3.15;;;21.80;99.90;;;;;;5059102;28;20525;-89
2022/08/04 00:50:59;;;;;;;9.10;3.67;;;21.80;99.90;;;;;;5059205;28;20040;-88
2022/08/04 00:53:39;;;;;;;5.53;3.05;;;21.80;99.90;;;;;;5075478;28;20049;-88
2022/08/04 00:56:29;;;;;;;7.45;3.90;;;21.70;99.90;;;;;;5057879;28;20495;-87
2022/08/04 00:59:19;;;;;;;7.55;3.47;;;21.70;99.90;;;;;;5051652;28;20060;-87
2022/08/04 01:02:07;;;;;;;10.55;3.70;;;21.70;99.90;;;;;;5075510;28;20086;-89
2022/08/04 01:05:01;;;;;;;5.80;4.00;;;21.70;99.90;;;;;;5059061;28;20055;-87
2022/08/04 01:07:35;;;;;;;9.25;4.03;;;21.60;99.90;;;;;;5075149;28;20044;-88
2022/08/04 01:10:16;;;;;;;10.63;4.43;;;21.60;99.90;;;;;;5076220;28;20370;-87
2022/08/04 01:12:51;;;;;;;9.43;3.85;;;21.60;99.90;;;;;;5059329;28;20063;-86
2022/08/04 01:15:55;;;;;;;10.15;4.28;;;21.60;99.90;;;;;;5058248;28;20044;-88
2022/08/04 01:18:44;;;;;;;8.63;3.83;;;21.50;99.90;;;;;;5054968;28;20463;-87
2022/08/04 01:21:28;;;;;;;6.50;3.85;;;21.50;99.90;;;;;;5058839;28;20543;-88
2022/08/04 01:24:29;;;;;;;7.07;4.55;;;21.50;99.90;;;;;;5075054;28;20048;-89
2022/08/04 01:27:09;;;;;;;8.52;4.00;;;21.40;99.90;;;;;;5076067;28;20170;-88
2022/08/04 01:30:01;;;;;;;9.00;4.13;;;21.40;99.90;;;;;;5058383;28;20537;-88
2022/08/04 01:32:37;;;;;;;10.02;3.85;;;21.40;99.90;;;;;;5055672;28;20056;-89
2022/08/04 01:35:44;;;;;;;9.02;4.43;;;21.30;99.90;;;;;;5074712;28;20485;-87
2022/08/04 01:38:23;;;;;;;11.40;4.38;;;21.30;99.90;;;;;;5057384;28;20164;-90
2022/08/04 01:40:55;;;;;;;7.25;4.22;;;21.30;99.90;;;;;;5074656;28;20098;-90
2022/08/04 01:43:22;;;;;;;10.45;4.28;;;21.20;99.90;;;;;;5074750;28;20048;-87
2022/08/04 01:45:57;;;;;;;11.10;4.50;;;21.20;99.90;;;;;;5058114;28;20045;-88
2022/08/04 01:48:24;;;;;;;7.07;4.35;;;21.30;99.90;;;;;;5074601;28;20053;-87
2022/08/04 01:50:52;;;;;;;7.78;4.30;;;21.20;99.90;;;;;;5058134;28;20073;-88
2022/08/04 01:53:19;;;;;;;7.32;4.07;;;21.10;99.90;;;;;;5057982;28;20051;-87
2022/08/04 01:55:51;;;;;;;7.03;4.15;;;21.10;99.90;;;;;;5057429;28;20128;-89
2022/08/04 01:58:20;;;;;;;8.10;4.00;;;21.10;99.90;;;;;;5074474;28;20052;-86
2022/08/04 02:01:07;;;;;;;6.40;4.40;;;21.10;99.90;;;;;;5074192;28;20048;-89
2022/08/04 02:03:34;;;;;;;7.88;3.92;;;21.10;99.90;;;;;;5057828;28;20048;-86
2022/08/04 02:06:31;;;;;;;8.80;3.90;;;21.00;99.90;;;;;;5074841;28;20515;-87
2022/08/04 02:09:10;;;;;;;11.35;4.40;;;21.00;99.90;;;;;;5057919;28;20477;-88
2022/08/04 02:11:39;;;;;;;7.07;4.07;;;20.90;99.90;;;;;;5057962;28;20400;-87
2022/08/04 02:14:44;;;;;;;9.43;4.60;;;20.80;99.90;;;;;;5075061;28;20045;-89
2022/08/04 02:17:18;;;;;;;10.30;4.38;;;21.20;99.90;;;;;;5073948;28;20378;-87
2022/08/04 02:19:46;;;;;;;6.82;4.65;;;20.80;99.90;;;;;;5057624;28;20358;-89
2022/08/04 02:22:21;;;;;;;9.00;4.50;;;20.80;99.90;;;;;;5073863;28;20050;-88
2022/08/04 02:24:52;;;;;;;9.15;4.28;;;20.80;99.90;;;;;;5057474;28;20098;-86
2022/08/04 02:27:24;;;;;;;8.15;4.22;;;20.80;99.90;;;;;;5074140;28;20477;-88
2022/08/04 02:29:57;;;;;;;9.07;4.75;;;20.70;99.90;;;;;;5057923;28;20052;-89
2022/08/04 02:32:29;;;;;;;10.43;5.20;;;20.70;99.90;;;;;;5057297;28;20088;-85
2022/08/04 02:35:05;;;;;;;8.07;5.18;;;20.70;99.90;;;;;;5056885;28;20111;-87
2022/08/04 02:37:32;;;;;;;8.07;4.80;;;20.60;99.90;;;;;;5056992;28;20052;-87
2022/08/04 02:39:58;;;;;;;;;;;20.60;99.90;;;;;;5057431;28;20044;-88
2022/08/04 02:42:25;;;;;;;7.90;5.38;;;20.60;99.90;;;;;;5057042;28;19920;-86
2022/08/04 02:44:51;;;;;;;7.55;5.30;;;20.40;99.90;;;;;;5056877;28;20175;-89
2022/08/04 02:47:20;;;;;;;10.13;5.53;;;20.60;99.90;;;;;;5057238;28;20102;-88
2022/08/04 02:49:48;;;;;;;10.38;5.15;;;20.50;99.90;;;;;;5073425;28;20055;-87
2022/08/04 02:52:15;;;;;;;10.27;5.70;;;20.60;99.90;;;;;;5073022;28;20067;-90
2022/08/04 02:54:43;;;;;;;12.32;5.43;;;20.40;99.90;;;;;;5056942;28;20558;-88
2022/08/04 02:57:11;;;;;;;8.77;5.18;;;20.40;99.90;;;;;;5073565;28;20453;-87
2022/08/04 02:59:52;;;;;;;7.82;5.22;;;20.30;99.90;;;;;;5072882;28;20043;-87
2022/08/04 03:02:26;;;;;;;10.50;5.25;;;20.40;99.90;;;;;;5056302;28;20053;-88
2022/08/04 03:05:06;;;;;;;10.38;5.80;;;20.40;99.90;;;;;;5056641;28;20428;-87
2022/08/04 03:07:48;;;;;;;10.98;5.53;;;20.30;99.90;;;;;;5056514;28;20076;-87
2022/08/04 03:10:34;;;;;;;11.48;5.70;;;20.30;99.90;;;;;;5074011;28;20040;-88
2022/08/04 03:13:38;;;;;;;9.40;5.10;;;20.30;99.90;;;;;;5072492;28;20048;-86
2022/08/04 03:16:19;;;;;;;10.20;5.47;;;20.30;99.90;;;;;;5056701;28;20052;-87
2022/08/04 03:19:22;;;;;;;10.85;5.80;;;20.30;99.90;;;;;;5055270;28;20045;-87
2022/08/04 03:21:47;;;;;;;10.45;5.30;;;20.30;99.90;;;;;;5072876;28;20384;-87
2022/08/04 03:24:37;;;;;;;8.60;5.53;;;20.30;99.90;;;;;;5072831;28;20140;-86
2022/08/04 03:27:10;;;;;;;11.43;5.78;;;20.30;99.90;;;;;;5073744;28;20044;-86
2022/08/04 03:30:13;;;;;;;12.82;5.72;;;20.20;99.90;;;;;;5056027;28;20053;-87
2022/08/04 03:33:39;;;;;;;10.70;5.28;;;20.20;99.90;;;;;;5056027;28;20127;-87
2022/08/04 03:36:32;;;;;;;16.92;5.82;;;20.20;99.90;;;;;;5014797;28;20128;-87
2022/08/04 03:39:07;;;;;;;11.02;5.50;;;20.20;99.90;;;;;;5056139;28;20136;-87
2022/08/04 03:41:38;;;;;;;9.05;5.00;;;20.20;99.90;;;;;;5072397;28;20057;-87
2022/08/04 03:44:42;;;;;;;10.48;5.30;;;20.10;99.90;;;;;;5055965;28;20131;-87
2022/08/04 03:47:37;;;;;;;12.38;5.05;;;20.10;99.90;;;;;;5072240;28;20044;-88
2022/08/04 03:50:24;;;;;;;9.18;4.60;;;20.10;99.90;;;;;;5055428;28;20060;-86
2022/08/04 03:53:17;;;;;;;6.22;4.82;;;20.10;99.90;;;;;;5055751;28;20056;-87
2022/08/04 03:56:01;;;;;;;12.32;5.18;;;20.10;99.90;;;;;;5072253;28;20127;-86
2022/08/04 03:58:35;;;;;;;9.77;5.10;;;20.10;99.90;;;;;;5072382;28;20047;-86
2022/08/04 04:01:19;;;;;;;10.55;4.65;;;20.10;99.90;;;;;;5055445;28;20058;-88
2022/08/04 04:04:06;;;;;;;11.32;4.93;;;20.10;99.90;;;;;;5055943;28;20070;-88
2022/08/04 04:07:25;;;;;;;13.35;5.15;;;20.10;99.90;;;;;;5055662;28;20056;-88
2022/08/04 04:10:02;;;;;;;;;;;20.10;99.90;;;;;;5014977;28;20099;-87
2022/08/04 04:13:06;;;;;;;11.88;4.97;;;20.10;99.90;;;;;;5071855;28;20356;-87
2022/08/04 04:16:07;;;;;;;9.45;4.80;;;20.10;99.90;;;;;;5055244;28;20472;-87
2022/08/04 04:19:10;;;;;;;11.27;5.00;;;20.10;99.90;;;;;;5055717;28;20090;-86
2022/08/04 04:22:05;;;;;;;10.00;4.68;;;20.10;99.90;;;;;;5072094;28;20049;-87
2022/08/04 04:24:39;;;;;;;10.13;4.65;;;20.00;99.90;;;;;;5055737;28;20115;-87
2022/08/04 04:27:33;;;;;;;8.07;4.25;;;20.00;99.90;;;;;;5072337;28;20153;-87
2022/08/04 04:30:22;;;;;;;7.80;4.50;;;20.10;99.90;;;;;;5072884;28;20044;-87
2022/08/04 04:33:07;;;;;;;9.93;4.53;;;20.10;99.90;;;;;;5059409;28;20055;-87
2022/08/04 04:35:58;;;;;;;9.20;4.82;;;20.10;99.90;;;;;;5059292;28;20484;-87
2022/08/04 04:38:46;;;;;;;8.70;4.18;;;20.20;99.90;;;;;;5075521;28;20102;-86
2022/08/04 04:41:30;;;;;;;11.15;4.70;;;20.20;99.90;;;;;;5075533;28;20095;-87
2022/08/04 04:44:24;;;;;;;11.18;4.90;;;20.10;99.90;;;;;;5076848;28;20048;-86
2022/08/04 04:47:13;;;;;;;8.40;4.18;;;20.20;99.90;;;;;;5058959;28;20450;-87
2022/08/04 04:50:02;;;;;;;10.68;4.57;;;20.30;99.90;;;;;;5058286;28;20390;-85
2022/08/04 04:52:39;;;;;;;10.75;4.18;;;20.30;99.90;;;;;;5075253;28;20049;-80
2022/08/04 04:55:25;;;;;;;10.75;4.45;;;20.20;99.90;;;;;;5075444;28;20045;-84
2022/08/04 04:57:54;;;;;;;10.20;4.80;;;20.50;99.90;;;;;;5076869;28;20048;-82
2022/08/04 05:00:32;;;;;;;11.35;4.72;;;20.50;99.90;;;;;;5076546;28;20067;-84
2022/08/04 05:03:04;;;;;;;8.82;4.57;;;20.50;99.90;;;;;;5075312;28;20053;-85
2022/08/04 05:05:46;;;;;;;10.27;4.15;;;20.50;99.90;;;;;;5059942;28;20041;-87
2022/08/04 05:08:46;;;;;;;9.00;4.50;;;20.50;99.90;;;;;;5062066;28;20063;-86
2022/08/04 05:11:42;;;;;;;10.13;4.43;;;20.60;99.90;;;;;;5076227;28;20123;-90
2022/08/04 05:14:25;;;;;;;8.60;4.70;;;20.70;99.90;;;;;;5058546;28;20041;-87
2022/08/04 05:17:10;;;;;;;8.00;4.10;;;20.70;99.90;;;;;;5058982;28;20452;-88
2022/08/04 05:19:52;;;;;;;18.73;5.00;;;20.70;99.90;;;;;;5075040;28;20045;-86
2022/08/04 05:22:24;;;;;;;10.93;5.03;;;20.90;99.90;;;;;;5058469;28;20443;-88
2022/08/04 05:25:00;;;;;;;11.13;4.50;;;20.90;99.90;;;;;;5058127;28;20416;-91
2022/08/04 05:27:36;;;;;;;13.60;4.32;;;20.90;99.90;;;;;;5057995;28;20076;-91
2022/08/04 05:30:04;;;;;;;11.43;4.28;;;21.00;99.90;;;;;;5076938;28;20118;-88
2022/08/04 05:32:39;;;;;;;8.85;4.20;;;21.00;99.90;;;;;;5074777;28;20114;-88
2022/08/04 05:35:10;;;;;;;10.43;4.45;;;21.10;99.90;;;;;;5058498;28;20041;-90
2022/08/04 05:37:39;;;;;;;11.63;4.20;;;21.20;99.90;;;;;;5079558;28;20111;-88
2022/08/04 05:40:07;;;;;;;13.93;4.50;;;21.20;99.90;;;;;;5058953;28;20047;-89
2022/08/04 05:42:36;;;;;;;8.18;3.85;;;21.30;99.90;;;;;;5057197;28;20052;-83
2022/08/04 05:45:03;;;;;;;9.93;4.03;;;21.30;99.90;;;;;;5058121;28;20052;-84
2022/08/04 05:47:31;;;;;;;11.43;4.38;;;21.40;99.90;;;;;;5057934;28;20044;-79
2022/08/04 05:49:58;;;;;;;11.35;4.10;;;21.40;99.90;;;;;;5074185;28;20055;-79
2022/08/04 05:52:25;;;;;;;10.30;4.25;;;21.50;99.90;;;;;;5075315;28;20048;-84
2022/08/04 05:54:52;;;;;;;10.93;4.20;;;21.50;99.90;;;;;;5074274;28;20093;-83
2022/08/04 05:57:19;;;;;;;9.43;4.20;;;21.60;99.90;;;;;;5057602;28;20055;-86
2022/08/04 05:59:47;;;;;;;12.73;4.55;;;21.60;99.90;;;;;;5074304;28;20131;-83
2022/08/04 06:02:17;;;;;;;7.75;3.75;;;21.70;99.90;;;;;;5075173;28;20055;-89
2022/08/04 06:04:46;;;;;;;11.07;3.83;;;21.80;99.90;;;;;;5074105;28;20048;-78
2022/08/04 06:07:12;;;;;;;12.52;4.22;;;21.80;99.90;;;;;;5074945;28;20055;-81
2022/08/04 06:09:39;;;;;;;13.43;4.00;;;21.90;99.90;;;;;;5074954;28;20080;-82
2022/08/04 06:12:19;;;;;;;8.60;3.30;;;22.10;99.90;;;;;;5057382;28;20044;-85
2022/08/04 06:14:47;;;;;;;9.75;3.53;;;22.20;99.90;;;;;;5072756;28;20131;-81
2022/08/04 06:17:20;;;;;;;7.70;4.25;;;22.30;99.90;;;;;;5072736;28;20044;-82
2022/08/04 06:19:48;;;;;;;15.02;4.22;;;22.40;99.90;;;;;;5073183;28;20115;-83
2022/08/04 06:22:14;;;;;;;9.05;4.07;;;22.50;99.90;;;;;;5072369;28;20056;-83
2022/08/04 06:24:41;;;;;;;11.30;4.63;;;22.80;99.90;;;;;;5073274;28;20551;-81
2022/08/04 06:27:07;;;;;;;11.95;4.38;;;22.60;99.90;;;;;;5074165;28;20044;-82
2022/08/04 06:29:37;;;;;;;9.00;4.32;;;22.80;99.90;;;;;;5073911;28;20044;-83
2022/08/04 06:32:23;;;;;;;10.80;4.20;;;22.70;99.90;;;;;;5073284;28;20048;-82
2022/08/04 06:34:58;;;;;;;10.85;3.53;;;22.80;99.90;;;;;;5073811;28;20506;-82
2022/08/04 06:37:25;;;;;;;8.25;3.75;;;22.90;99.90;;;;;;5073589;28;20048;-82
2022/08/04 06:39:52;;;;;;;8.93;3.85;;;23.00;99.90;;;;;;5074264;28;20523;-83
2022/08/04 06:42:23;;;;;;;11.10;3.95;;;23.20;99.90;;;;;;5074315;28;20049;-83
2022/08/04 06:44:52;;;;;;;11.00;3.85;;;23.30;99.90;;;;;;5073528;28;20097;-82
2022/08/04 06:47:20;;;;;;;8.68;4.00;;;23.40;99.90;;;;;;5073632;28;20041;-82
2022/08/04 06:49:48;;;;;;;9.90;4.10;;;23.60;99.90;;;;;;5074351;28;20092;-83
2022/08/04 06:52:16;;;;;;;6.93;3.35;;;23.60;99.90;;;;;;5073211;28;20044;-83
2022/08/04 06:54:46;;;;;;;7.22;3.65;;;23.90;99.90;;;;;;5056205;28;20041;-83
2022/08/04 06:57:25;;;;;;;8.88;3.88;;;24.00;99.90;;;;;;5074047;28;20412;-83
2022/08/04 06:59:56;;;;;;;7.60;3.85;;;24.20;99.90;;;;;;5073999;28;20492;-83
2022/08/04 07:02:26;;;;;;;9.70;4.13;;;24.30;99.90;;;;;;5056693;28;20049;-84
2022/08/04 07:04:52;;;;;;;8.32;4.15;;;24.40;99.90;;;;;;5072927;28;20053;-83
2022/08/04 07:07:18;;;;;;;9.98;4.35;;;24.40;99.90;;;;;;5073028;28;20088;-83
2022/08/04 07:09:44;;;;;;;8.75;4.40;;;24.40;99.90;;;;;;5056494;28;20044;-83
2022/08/04 07:12:10;;;;;;;9.23;3.95;;;24.40;99.90;;;;;;5073905;28;20439;-83
2022/08/04 07:14:38;;;;;;;7.25;4.20;;;24.50;99.90;;;;;;5074026;28;20063;-83
2022/08/04 07:17:05;;;;;;;8.65;4.32;;;24.50;99.90;;;;;;5073060;28;20044;-84
2022/08/04 07:19:35;;;;;;;7.93;4.55;;;24.50;99.90;;;;;;5072566;28;20059;-83
2022/08/04 07:22:06;;;;;;;8.70;4.25;;;24.60;99.90;;;;;;5074437;28;20044;-82
2022/08/04 07:24:34;;;;;;;7.65;4.88;;;24.50;99.90;;;;;;5073784;28;20052;-82
2022/08/04 07:27:00;;;;;;;9.68;4.43;;;24.60;99.90;;;;;;5072818;28;20043;-82
2022/08/04 07:29:27;;;;;;;8.25;4.20;;;24.60;99.90;;;;;;5072836;28;20131;-84
2022/08/04 07:31:53;;;;;;;;;;;24.60;99.90;;;;;;5073146;28;20047;-84
2022/08/04 07:34:20;;;;;;;9.00;4.53;;;24.70;99.90;;;;;;5072347;28;19921;-84
2022/08/04 07:36:48;;;;;;;10.32;4.18;;;24.80;99.90;;;;;;5072610;28;20049;-84
2022/08/04 07:39:13;;;;;;;9.10;4.35;;;24.80;99.90;;;;;;5073629;28;20052;-83
2022/08/04 07:41:41;;;;;;;8.07;3.80;;;25.00;99.90;;;;;;5073315;28;20040;-84
2022/08/04 07:44:08;;;;;;;7.70;4.40;;;25.10;99.90;;;;;;5072549;28;20123;-84
2022/08/04 07:46:37;;;;;;;8.55;4.80;;;25.10;99.90;;;;;;5072562;28;20048;-84
2022/08/04 07:49:04;;;;;;;10.00;3.85;;;25.20;99.90;;;;;;5072154;28;20064;-84
2022/08/04 07:51:30;;;;;;;10.45;4.57;;;25.30;99.90;;;;;;5072526;28;20037;-84
2022/08/04 07:53:56;;;;;;;;;;;25.30;99.90;;;;;;5072787;28;20063;-84
2022/08/04 07:56:22;;;;;;;9.30;3.83;;;25.30;99.90;;;;;;5073375;28;19928;-84
2022/08/04 07:58:48;;;;;;;5.90;4.18;;;25.40;99.90;;;;;;5073544;28;20048;-84
2022/08/04 08:01:13;;;;;;;11.83;4.20;;;25.40;99.90;;;;;;5055766;28;20044;-85
2022/08/04 08:03:40;;;;;;;9.73;4.35;;;25.50;99.90;;;;;;5072079;28;20040;-84
2022/08/04 08:06:06;;;;;;;;;;;25.50;99.90;;;;;;5075516;28;20087;-84
2022/08/04 08:08:31;;;;;;;7.43;3.80;;;25.50;99.90;;;;;;5076852;28;19931;-84
2022/08/04 08:10:57;;;;;;;8.43;3.57;;;25.70;99.90;;;;;;5076362;28;20127;-83
2022/08/04 08:13:24;;;;;;;8.68;3.55;;;25.80;99.90;;;;;;5076041;28;20119;-83
2022/08/04 08:15:51;;;;;;;8.50;3.75;;;25.80;99.90;;;;;;5077101;28;20051;-84
2022/08/04 08:18:17;;;;;;;9.10;3.78;;;26.00;99.90;;;;;;5077080;28;20044;-83
2022/08/04 08:20:45;;;;;;;12.43;3.90;;;26.10;99.90;;;;;;5076142;28;20056;-84
2022/08/04 08:23:11;;;;;;;8.32;3.55;;;26.00;99.90;;;;;;5076210;28;20048;-85
2022/08/04 08:25:37;;;;;;;8.07;3.35;;;26.00;99.90;;;;;;5076088;28;20376;-84
2022/08/04 08:28:05;;;;;;;6.47;3.38;;;26.10;99.90;;;;;;5075983;28;20362;-84
2022/08/04 08:30:32;;;;;;;13.73;3.90;;;26.20;99.90;;;;;;5076001;28;20090;-83
2022/08/04 08:33:00;;;;;;;8.13;3.30;;;26.30;99.90;;;;;;5075529;28;20080;-84
2022/08/04 08:35:29;;;;;;;8.77;3.30;;;26.40;99.90;;;;;;5075597;28;20090;-85
2022/08/04 08:38:01;;;;;;;8.85;2.65;;;26.30;99.90;;;;;;5059075;28;20056;-84
2022/08/04 08:40:44;;;;;;;9.30;3.30;;;26.40;99.90;;;;;;5059493;28;20044;-84
2022/08/04 08:43:15;;;;;;;8.98;3.53;;;26.40;99.90;;;;;;5076682;28;20404;-83
2022/08/04 08:46:17;;;;;;;6.47;2.90;;;26.50;99.90;;;;;;5076606;28;20071;-84
2022/08/04 08:48:54;;;;;;;8.88;2.83;;;26.70;99.90;;;;;;5076795;28;20385;-84
2022/08/04 08:51:34;;;;;;;9.55;2.80;;;26.90;99.90;;;;;;5075672;28;20449;-84
2022/08/04 08:54:21;;;;;;;8.10;3.35;;;27.10;99.90;;;;;;5076421;28;20044;-83
2022/08/04 08:57:11;;;;;;;5.97;2.63;;;27.40;99.90;;;;;;5076417;28;20054;-84
2022/08/04 09:00:00;;;;;;;9.85;2.65;;;27.60;99.90;;;;;;5075446;28;20798;-84
2022/08/04 09:02:40;;;;;;;10.65;3.08;;;27.80;99.90;;;;;;5075367;28;20491;-83
2022/08/04 09:05:33;;;;;;;7.85;2.85;;;28.00;99.90;;;;;;5075309;28;20079;-83
2022/08/04 09:08:23;;;;;;;9.30;2.38;;;28.10;99.90;;;;;;5075484;28;20048;-82
2022/08/04 09:10:58;;;;;;;13.52;3.60;;;28.30;99.90;;;;;;5075803;28;20054;-83
2022/08/04 09:13:48;;;;;;;9.18;2.67;;;28.30;99.90;;;;;;5075347;28;20048;-82
2022/08/04 09:16:28;;;;;;;8.50;2.70;;;28.50;99.90;;;;;;5075408;28;20056;-84
2022/08/04 09:19:07;;;;;;;5.95;2.30;;;28.60;99.90;;;;;;5074737;28;20055;-83
2022/08/04 09:21:38;;;;;;;9.23;3.00;;;28.70;99.90;;;;;;5075238;28;20052;-83
2022/08/04 09:24:17;;;;;;;5.47;2.47;;;28.80;99.90;;;;;;5075081;28;20051;-82
2022/08/04 09:27:02;;;;;;;7.95;2.60;;;28.90;99.90;;;;;;5076161;28;20102;-83
2022/08/04 09:29:50;;;;;;;6.32;2.25;;;29.00;99.90;;;;;;5074900;28;20106;-83
2022/08/04 09:32:34;;;;;;;9.35;2.60;;;29.00;99.90;;;;;;5058302;28;20047;-83
2022/08/04 09:35:19;;;;;;;8.63;2.50;;;29.10;99.90;;;;;;5074855;28;20048;-83
2022/08/04 09:37:54;;;;;;;7.47;2.20;;;29.10;99.90;;;;;;5075577;28;20427;-83
2022/08/04 09:40:35;;;;;;;8.77;2.35;;;29.20;99.90;;;;;;5075434;28;20048;-83
2022/08/04 09:43:45;;;;;;;9.32;2.42;;;29.20;99.90;;;;;;5057945;28;20128;-84
2022/08/04 09:46:21;;;;;;;9.27;2.00;;;29.30;99.90;;;;;;5074661;28;20443;-83
2022/08/04 09:48:53;;;;;;;6.60;2.15;;;29.30;99.90;;;;;;5073813;28;20505;-83
2022/08/04 09:51:50;;;;;;;8.50;2.22;;;29.30;99.90;;;;;;5075736;28;20416;-83
2022/08/04 09:54:30;;;;;;;7.95;2.20;;;29.40;99.90;;;;;;5075242;28;20040;-84
2022/08/04 09:57:06;;;;;;;6.60;2.03;;;29.50;99.90;;;;;;5074523;28;20481;-83
2022/08/04 09:59:41;;;;;;;6.93;2.10;;;29.50;99.90;;;;;;5074534;28;20063;-82
2022/08/04 10:02:12;;;;;;;8.77;2.30;;;29.70;99.90;;;;;;5074282;28;20037;-84
2022/08/04 10:04:41;;;;;;;10.25;2.63;;;29.80;99.90;;;;;;5074211;28;20477;-83
2022/08/04 10:07:41;;;;;;;8.93;2.97;;;29.90;99.90;;;;;;5073875;28;20466;-83
2022/08/04 10:10:21;;;;;;;9.20;2.30;;;30.00;99.50;;;;;;5074464;28;20045;-83
2022/08/04 10:13:16;;;;;;;8.05;2.50;;;30.10;99.00;;;;;;5073691;28;20090;-83
2022/08/04 10:16:23;;;;;;;6.78;2.22;;;30.10;99.20;;;;;;5073862;28;20044;-83
2022/08/04 10:19:06;;;;;;;10.88;2.40;;;30.10;99.60;;;;;;5049016;28;20052;-82
2022/08/04 10:21:50;;;;;;;5.95;2.20;;;30.00;99.30;;;;;;5057238;28;20052;-82
2022/08/04 10:24:28;;;;;;;8.77;2.63;;;30.10;99.90;;;;;;5057715;28;20048;-84
2022/08/04 10:27:09;;;;;;;5.90;2.30;;;30.20;99.70;;;;;;5057270;28;20055;-83
2022/08/04 10:29:45;;;;;;;8.93;2.53;;;30.30;99.60;;;;;;5074384;28;20400;-84
2022/08/04 10:32:24;;;;;;;5.93;2.30;;;30.40;99.00;;;;;;5056906;28;20133;-83
2022/08/04 10:35:04;;;;;;;6.00;2.60;;;30.60;99.70;;;;;;5073424;28;20496;-84
2022/08/04 10:37:42;;;;;;;7.50;2.90;;;30.70;99.20;;;;;;5073877;28;20134;-84
2022/08/04 10:43:08;;;;;;;5.95;2.50;;;30.70;99.20;;;;;;5074034;28;20056;-84
2022/08/04 10:45:43;;;;;;;7.90;2.78;;;30.60;99.50;;;;;;5073137;28;20044;-84
2022/08/04 10:48:19;;;;;;;9.07;2.30;;;30.60;99.40;;;;;;5073183;28;20481;-84
2022/08/04 10:51:12;;;;;;;7.03;2.70;;;30.70;99.50;;;;;;5073238;28;20090;-83
2022/08/04 10:53:41;;;;;;;7.97;2.80;;;30.90;99.00;;;;;;5074186;28;20392;-84
2022/08/04 10:56:45;;;;;;;7.78;2.72;;;31.10;99.40;;;;;;5073006;28;20113;-85
2022/08/04 10:59:38;;;;;;;6.15;2.53;;;31.30;99.90;;;;;;5069761;28;20523;-85
2022/08/04 11:02:41;;;;;;;5.85;2.70;;;31.40;99.10;;;;;;5056541;28;20047;-84
2022/08/04 11:05:38;;;;;;;7.80;2.80;;;31.50;99.30;;;;;;5073022;28;20480;-83
2022/08/04 11:08:10;;;;;;;5.80;2.90;;;31.60;99.40;;;;;;5073685;28;20400;-85
2022/08/04 11:10:45;;;;;;;8.10;3.35;;;31.60;98.60;;;;;;5074226;28;20040;-84
2022/08/04 11:13:14;;;;;;;5.82;2.80;;;31.50;99.60;;;;;;5073935;28;20089;-84
2022/08/04 11:15:46;;;;;;;7.50;2.95;;;31.50;99.90;;;;;;5073883;28;20412;-84
2022/08/04 11:18:42;;;;;;;6.72;3.00;;;31.60;99.90;;;;;;5073279;28;20052;-85
2022/08/04 11:21:15;;;;;;;5.93;3.10;;;31.60;99.90;;;;;;5073843;28;20083;-85
2022/08/04 11:23:51;;;;;;;8.93;3.10;;;31.40;99.80;;;;;;5073796;28;20094;-83
2022/08/04 11:26:56;;;;;;;8.35;2.92;;;31.20;99.90;;;;;;5073806;28;20033;-83
2022/08/04 11:30:06;;;;;;;5.90;3.08;;;31.10;99.90;;;;;;5051598;28;20049;-84
2022/08/04 11:33:04;;;;;;;11.85;3.25;;;30.90;99.90;;;;;;5059293;28;20519;-84
2022/08/04 11:35:48;;;;;;;10.40;2.90;;;30.80;99.90;;;;;;5073008;28;20048;-84
2022/08/04 11:38:44;;;;;;;6.95;2.38;;;30.80;99.90;;;;;;5056196;28;20143;-84
2022/08/04 11:41:16;;;;;;;6.72;1.98;;;30.60;99.90;;;;;;5071942;28;20041;-84
2022/08/04 11:44:01;;;;;;;7.55;2.45;;;30.50;99.90;;;;;;5055940;28;20613;-83
2022/08/04 11:46:42;;;;;;;7.28;1.90;;;30.40;99.70;;;;;;5073004;28;20037;-85
2022/08/04 11:49:23;;;;;;;4.93;2.25;;;30.40;99.80;;;;;;5073539;28;20059;-85
2022/08/04 11:51:50;;;;;;;4.07;1.80;;;30.30;99.10;;;;;;5072563;28;20546;-84
2022/08/04 11:54:17;;;;;;;7.70;1.80;;;30.10;99.50;;;;;;5072451;28;20131;-84
2022/08/04 11:56:43;;;;;;;5.00;1.70;;;30.10;99.90;;;;;;5072446;28;20055;-84
2022/08/04 11:59:09;;;;;;;5.45;1.50;;;29.90;99.80;;;;;;5073707;28;20059;-84
2022/08/04 12:01:48;;;;;;;6.35;1.90;;;29.80;99.40;;;;;;5072426;28;20040;-85
2022/08/04 12:04:27;;;;;;;5.80;2.13;;;29.50;98.30;;;;;;5072691;28;20090;-84
2022/08/04 12:07:02;;;;;;;7.32;1.55;;;29.30;99.20;;;;;;5055957;28;20053;-85
2022/08/04 12:09:35;;;;;;;2.97;1.33;;;29.10;99.40;;;;;;5073517;28;20049;-85
2022/08/04 12:12:06;;;;;;;6.13;2.00;;;29.00;99.70;;;;;;5072489;28;20044;-84
2022/08/04 12:14:50;;;;;;;4.32;1.45;;;28.90;99.90;;;;;;5073170;28;20094;-85
2022/08/04 12:17:26;;;;;;;4.43;2.08;;;28.90;99.90;;;;;;5072502;28;20125;-85
2022/08/04 12:19:56;;;;;;;5.80;1.80;;;28.80;99.90;;;;;;5072644;28;20223;-84
2022/08/04 12:22:24;;;;;;;6.72;1.70;;;28.60;99.90;;;;;;5055804;28;20114;-84
2022/08/04 12:25:06;;;;;;;5.45;1.85;;;28.60;99.90;;;;;;5072147;28;20056;-83
2022/08/04 12:27:45;;;;;;;8.10;1.95;;;28.50;99.90;;;;;;5073164;28;20052;-82
2022/08/04 12:30:11;;;;;;;3.45;1.33;;;28.40;99.90;;;;;;5072639;28;20373;-83
2022/08/04 12:32:54;;;;;;;4.30;1.60;;;28.30;99.90;;;;;;5055521;28;20051;-85
2022/08/04 12:35:30;;;;;;;4.53;1.90;;;28.30;99.90;;;;;;5073020;28;20044;-85
2022/08/04 12:38:07;;;;;;;9.85;1.67;;;28.10;99.90;;;;;;5072298;28;20051;-84
2022/08/04 12:40:47;;;;;;;5.97;1.52;;;28.00;99.90;;;;;;5073463;28;20053;-85
2022/08/04 12:43:16;;;;;;;4.30;1.58;;;27.80;99.90;;;;;;5073046;28;20048;-84
2022/08/04 12:46:07;;;;;;;5.10;1.67;;;27.70;99.90;;;;;;5071967;28;20040;-83
2022/08/04 12:48:36;;;;;;;3.72;1.38;;;27.60;99.90;;;;;;5064751;28;20044;-84
2022/08/04 12:51:02;;;;;;;6.00;1.65;;;27.40;99.90;;;;;;5055995;28;20048;-84
2022/08/04 12:53:38;;;;;;;9.60;1.80;;;27.30;99.90;;;;;;5075556;28;20040;-83
2022/08/04 12:56:06;;;;;;;7.90;1.85;;;27.20;99.90;;;;;;5076373;28;20051;-84
2022/08/04 12:58:36;;;;;;;4.85;1.67;;;27.00;99.90;;;;;;5076309;28;20056;-82
2022/08/04 13:01:06;;;;;;;5.88;1.90;;;26.90;99.90;;;;;;5076379;28;20056;-81
2022/08/04 13:03:42;;;;;;;9.15;1.90;;;26.70;99.90;;;;;;5075311;28;20044;-84
2022/08/04 13:06:12;;;;;;;7.20;2.35;;;26.70;99.90;;;;;;5075088;28;20484;-82
2022/08/04 13:08:40;;;;;;;5.53;1.80;;;26.50;99.90;;;;;;5075362;28;20036;-82
2022/08/04 13:11:08;;;;;;;6.07;1.70;;;26.30;99.90;;;;;;5076163;28;20040;-83
2022/08/04 13:13:36;;;;;;;6.32;2.03;;;26.40;99.90;;;;;;5076519;28;20045;-82
2022/08/04 13:16:08;;;;;;;5.13;1.80;;;26.30;99.90;;;;;;5076047;28;20052;-82
2022/08/04 13:18:38;;;;;;;4.93;1.60;;;26.30;99.90;;;;;;5076022;28;20174;-82
2022/08/04 13:21:12;;;;;;;6.00;1.77;;;26.40;99.90;;;;;;5075238;28;20052;-82
2022/08/04 13:23:39;;;;;;;6.70;1.80;;;26.40;99.90;;;;;;5075913;28;20094;-82
2022/08/04 13:26:06;;;;;;;5.18;1.75;;;26.30;99.90;;;;;;5075922;28;20420;-82
2022/08/04 13:28:33;;;;;;;3.75;1.30;;;26.40;99.90;;;;;;5075873;28;20404;-82
2022/08/04 13:31:01;;;;;;;6.53;1.55;;;26.60;99.90;;;;;;5041671;28;20469;-83
2022/08/04 13:33:30;;;;;;;3.38;1.60;;;26.80;99.90;;;;;;5075953;28;20052;-81
2022/08/04 13:36:00;;;;;;;6.10;1.50;;;27.00;99.90;;;;;;5074380;28;20052;-82
2022/08/04 13:38:28;;;;;;;5.53;1.40;;;27.10;99.90;;;;;;5075659;28;20041;-84
2022/08/04 13:40:58;;;;;;;3.72;1.70;;;27.20;99.90;;;;;;5075583;28;20415;-82